createdAt,value
2023-04-30T00:01:03.012Z,101142.97
2023-04-30T00:03:29.945Z,101142.41
2023-04-30T00:05:57.251Z,101141.59
2023-04-30T00:08:24.156Z,101137.00
2023-04-30T00:10:51.825Z,101144.81
2023-04-30T00:13:19.125Z,101148.81
2023-04-30T00:15:45.978Z,101146.41
2023-04-30T00:18:12.770Z,101154.50
2023-04-30T00:20:39.502Z,101153.41
2023-04-30T00:23:06.229Z,101152.34
2023-04-30T00:25:32.914Z,101149.66
2023-04-30T00:27:59.561Z,101154.50
2023-04-30T00:30:26.423Z,101153.09
2023-04-30T00:32:53.279Z,101163.31
2023-04-30T00:35:20.058Z,101158.72
2023-04-30T00:37:47.691Z,101157.59
2023-04-30T00:40:15.036Z,101159.75
2023-04-30T00:42:41.767Z,101157.81
2023-04-30T00:45:08.992Z,101156.44
2023-04-30T00:47:35.781Z,101145.13
2023-04-30T00:50:02.645Z,101154.00
2023-04-30T00:52:29.719Z,101146.72
2023-04-30T00:54:56.592Z,101149.69
2023-04-30T00:57:23.648Z,101149.94
2023-04-30T00:59:50.875Z,101149.16
2023-04-30T01:02:18.842Z,101146.69
2023-04-30T01:04:47.039Z,101149.91
2023-04-30T01:07:13.916Z,101156.34
2023-04-30T01:09:40.998Z,101153.63
2023-04-30T01:12:21.301Z,101151.44
2023-04-30T01:14:47.955Z,101162.47
2023-04-30T01:17:23.971Z,101156.81
2023-04-30T01:19:50.794Z,101153.56
2023-04-30T01:22:35.492Z,101153.56
2023-04-30T01:25:30.052Z,101156.28
2023-04-30T01:28:16.679Z,101147.63
2023-04-30T01:30:47.423Z,101147.88
2023-04-30T01:33:14.202Z,101150.31
2023-04-30T01:35:58.706Z,101146.31
2023-04-30T01:38:33.170Z,101153.31
2023-04-30T01:41:15.144Z,101146.88
2023-04-30T01:44:19.732Z,101150.63
2023-04-30T01:46:56.098Z,101150.63
2023-04-30T01:49:44.104Z,101151.44
2023-04-30T01:52:39.760Z,101154.38
2023-04-30T01:55:24.375Z,101155.22
2023-04-30T01:58:02.806Z,101150.88
2023-04-30T02:00:30.993Z,101151.44
2023-04-30T02:02:58.583Z,101147.69
2023-04-30T02:05:25.566Z,101147.69
2023-04-30T02:07:54.155Z,101155.22
2023-04-30T02:10:23.065Z,101147.16
2023-04-30T02:12:49.990Z,101150.38
2023-04-30T02:15:17.219Z,101152.00
2023-04-30T02:17:44.120Z,101147.41
2023-04-30T02:20:11.658Z,101150.94
2023-04-30T02:22:38.428Z,101158.47
2023-04-30T02:25:05.643Z,101157.34
2023-04-30T02:27:33.522Z,101147.09
2023-04-30T02:30:01.056Z,101148.16
2023-04-30T02:32:27.816Z,101151.97
2023-04-30T02:34:54.702Z,101149.84
2023-04-30T02:37:21.334Z,101148.97
2023-04-30T02:39:48.167Z,101148.09
2023-04-30T02:42:15.328Z,101150.75
2023-04-30T02:44:42.588Z,101154.47
2023-04-30T02:47:09.319Z,101145.28
2023-04-30T02:49:36.460Z,101154.94
2023-04-30T02:52:03.215Z,101150.06
2023-04-30T02:54:29.970Z,101148.44
2023-04-30T02:56:56.605Z,101150.56
2023-04-30T02:59:23.345Z,101152.44
2023-04-30T03:01:50.298Z,101155.94
2023-04-30T03:04:17.131Z,101150.31
2023-04-30T03:06:43.932Z,101150.06
2023-04-30T03:09:11.088Z,101160.31
2023-04-30T03:11:37.906Z,101161.09
2023-04-30T03:14:07.749Z,101157.38
2023-04-30T03:16:34.517Z,101163.31
2023-04-30T03:19:01.504Z,101162.75
2023-04-30T03:21:28.171Z,101153.59
2023-04-30T03:23:54.890Z,101153.59
2023-04-30T03:26:22.144Z,101147.41
2023-04-30T03:28:49.405Z,101143.38
2023-04-30T03:31:16.191Z,101149.00
2023-04-30T03:33:43.230Z,101144.94
2023-04-30T03:36:10.084Z,101146.75
2023-04-30T03:38:36.707Z,101148.31
2023-04-30T03:41:03.868Z,101153.66
2023-04-30T03:43:30.735Z,101152.47
2023-04-30T03:45:57.937Z,101151.88
2023-04-30T03:48:25.500Z,101146.16
2023-04-30T03:50:52.510Z,101151.22
2023-04-30T03:53:19.216Z,101156.34
2023-04-30T03:55:45.931Z,101155.78
2023-04-30T03:58:13.217Z,101155.00
2023-04-30T04:00:41.624Z,101154.19
2023-04-30T04:03:08.659Z,101151.75
2023-04-30T04:05:35.410Z,101146.03
2023-04-30T04:08:02.138Z,101143.63
2023-04-30T04:10:29.269Z,101151.13
2023-04-30T04:12:55.994Z,101152.19
2023-04-30T04:15:22.824Z,101155.38
2023-04-30T04:17:49.573Z,101160.75
2023-04-30T04:20:16.580Z,101155.38
2023-04-30T04:22:44.097Z,101159.91
2023-04-30T04:25:11.059Z,101153.75
2023-04-30T04:27:38.800Z,101156.44
2023-04-30T04:30:06.219Z,101159.13
2023-04-30T04:32:33.093Z,101162.88
2023-04-30T04:35:00.158Z,101165.56
2023-04-30T04:37:27.036Z,101173.91
2023-04-30T04:39:53.962Z,101173.69
2023-04-30T04:42:21.288Z,101177.50
2023-04-30T04:44:48.046Z,101167.31
2023-04-30T04:47:20.000Z,101173.25
2023-04-30T04:49:47.081Z,101167.53
2023-04-30T04:52:15.567Z,101168.88
2023-04-30T04:54:42.546Z,101175.38
2023-04-30T04:57:09.233Z,101162.50
2023-04-30T04:59:36.710Z,101173.00
2023-04-30T05:02:03.474Z,101164.41
2023-04-30T05:04:30.501Z,101160.97
2023-04-30T05:06:57.268Z,101162.94
2023-04-30T05:09:24.279Z,101166.47
2023-04-30T05:11:51.059Z,101170.28
2023-04-30T05:14:17.757Z,101162.53
2023-04-30T05:16:45.295Z,101166.03
2023-04-30T05:19:12.238Z,101167.38
2023-04-30T05:21:42.116Z,101170.63
2023-04-30T05:24:08.772Z,101172.03
2023-04-30T05:26:35.803Z,101181.22
2023-04-30T05:29:03.130Z,101174.81
2023-04-30T05:31:29.972Z,101180.81
2023-04-30T05:33:56.607Z,101171.16
2023-04-30T05:36:23.489Z,101178.78
2023-04-30T05:38:51.976Z,101178.31
2023-04-30T05:41:18.951Z,101171.63
2023-04-30T05:43:45.835Z,101178.47
2023-04-30T05:46:12.663Z,101168.34
2023-04-30T05:48:40.004Z,101176.97
2023-04-30T05:51:07.182Z,101178.66
2023-04-30T05:53:34.194Z,101181.66
2023-04-30T05:56:01.179Z,101175.56
2023-04-30T05:58:28.018Z,101172.88
2023-04-30T06:00:54.855Z,101172.34
2023-04-30T06:03:21.611Z,101174.56
2023-04-30T06:05:48.439Z,101177.31
2023-04-30T06:08:15.605Z,101175.41
2023-04-30T06:10:42.463Z,101175.44
2023-04-30T06:13:09.517Z,101176.31
2023-04-30T06:15:36.279Z,101177.97
2023-04-30T06:18:03.303Z,101176.41
2023-04-30T06:20:30.110Z,101173.75
2023-04-30T06:22:56.849Z,101176.47
2023-04-30T06:25:23.686Z,101171.94
2023-04-30T06:27:51.757Z,101166.84
2023-04-30T06:30:18.414Z,101173.88
2023-04-30T06:32:45.486Z,101170.69
2023-04-30T06:35:12.175Z,101170.16
2023-04-30T06:37:38.905Z,101172.06
2023-04-30T06:40:06.609Z,101181.25
2023-04-30T06:42:36.645Z,101173.97
2023-04-30T06:45:04.203Z,101171.78
2023-04-30T06:47:34.681Z,101176.94
2023-04-30T06:50:01.975Z,101181.25
2023-04-30T06:52:29.127Z,101180.97
2023-04-30T06:54:55.894Z,101185.81
2023-04-30T06:57:22.689Z,101185.81
2023-04-30T06:59:49.364Z,101189.09
2023-04-30T07:02:16.302Z,101183.69
2023-04-30T07:04:43.055Z,101184.22
2023-04-30T07:07:09.893Z,101179.34
2023-04-30T07:09:37.068Z,101177.75
2023-04-30T07:12:03.969Z,101179.31
2023-04-30T07:14:30.829Z,101184.16
2023-04-30T07:16:57.900Z,101184.63
2023-04-30T07:19:26.985Z,101182.91
2023-04-30T07:21:53.857Z,101182.91
2023-04-30T07:24:20.696Z,101185.00
2023-04-30T07:26:47.399Z,101185.47
2023-04-30T07:29:14.035Z,101187.75
2023-04-30T07:31:41.018Z,101182.00
2023-04-30T07:34:08.823Z,101180.13
2023-04-30T07:36:35.733Z,101175.84
2023-04-30T07:39:02.580Z,101178.38
2023-04-30T07:41:29.440Z,101171.16
2023-04-30T07:43:56.289Z,101171.53
2023-04-30T07:46:25.071Z,101172.00
2023-04-30T07:48:51.733Z,101168.59
2023-04-30T07:51:18.370Z,101173.13
2023-04-30T07:53:45.590Z,101173.22
2023-04-30T07:56:13.025Z,101170.56
2023-04-30T07:58:39.739Z,101168.69
2023-04-30T08:01:06.765Z,101178.72
2023-04-30T08:03:33.682Z,101178.16
2023-04-30T08:06:00.907Z,101178.72
2023-04-30T08:08:27.693Z,101185.19
2023-04-30T08:10:54.335Z,101175.31
2023-04-30T08:13:21.014Z,101179.72
2023-04-30T08:15:50.089Z,101169.81
2023-04-30T08:18:16.781Z,101159.00
2023-04-30T08:20:43.641Z,101148.38
2023-04-30T08:23:10.810Z,101137.84
2023-04-30T08:25:37.546Z,101141.00
2023-04-30T08:28:04.358Z,101131.50
2023-04-30T08:30:31.160Z,101128.00
2023-04-30T08:32:58.019Z,101130.91
2023-04-30T08:35:25.237Z,101124.22
2023-04-30T08:37:51.917Z,101121.63
2023-04-30T08:40:18.669Z,101124.25
2023-04-30T08:42:50.433Z,101117.00
2023-04-30T08:45:18.156Z,101130.59
2023-04-30T08:47:45.481Z,101118.88
2023-04-30T08:50:12.378Z,101137.31
2023-04-30T08:52:40.235Z,101127.72
2023-04-30T08:55:08.855Z,101128.84
2023-04-30T08:57:37.410Z,101129.78
2023-04-30T09:00:06.757Z,101129.13
2023-04-30T09:02:34.728Z,101120.94
2023-04-30T09:05:01.808Z,101123.41
2023-04-30T09:07:33.687Z,101123.81
2023-04-30T09:10:00.831Z,101132.09
2023-04-30T09:12:27.835Z,101132.00
2023-04-30T09:15:08.456Z,101131.94
2023-04-30T09:17:35.342Z,101124.88
2023-04-30T09:20:12.907Z,101122.13
2023-04-30T09:22:41.582Z,101124.81
2023-04-30T09:25:09.790Z,101113.69
2023-04-30T09:27:36.581Z,101110.81
2023-04-30T09:30:04.714Z,101118.31
2023-04-30T09:32:31.717Z,101122.06
2023-04-30T09:34:58.582Z,101124.09
2023-04-30T09:37:36.476Z,101132.88
2023-04-30T09:40:04.605Z,101127.78
2023-04-30T09:42:31.435Z,101119.69
2023-04-30T09:44:58.430Z,101116.25
2023-04-30T09:47:31.154Z,101099.59
2023-04-30T09:50:00.664Z,101099.97
2023-04-30T09:52:27.393Z,101106.13
2023-04-30T09:54:54.147Z,101107.88
2023-04-30T09:57:24.348Z,101109.94
2023-04-30T09:59:53.463Z,101118.31
2023-04-30T10:02:23.484Z,101113.53
2023-04-30T10:04:56.273Z,101113.97
2023-04-30T10:07:26.323Z,101116.25
2023-04-30T10:10:03.389Z,101102.56
2023-04-30T10:12:40.729Z,101104.28
2023-04-30T10:15:17.742Z,101107.78
2023-04-30T10:17:50.631Z,101102.63
2023-04-30T10:20:18.419Z,101100.44
2023-04-30T10:22:47.461Z,101095.72
2023-04-30T10:25:14.724Z,101102.66
2023-04-30T10:27:42.661Z,101103.19
2023-04-30T10:30:11.670Z,101099.13
2023-04-30T10:33:00.470Z,101095.84
2023-04-30T10:35:30.814Z,101100.13
2023-04-30T10:38:13.066Z,101093.94
2023-04-30T10:40:39.889Z,101096.69
2023-04-30T10:43:06.894Z,101090.03
2023-04-30T10:45:38.945Z,101086.66
2023-04-30T10:48:07.210Z,101087.97
2023-04-30T10:50:42.994Z,101076.25
2023-04-30T10:53:18.292Z,101070.19
2023-04-30T10:55:53.151Z,101069.13
2023-04-30T10:58:28.008Z,101056.50
2023-04-30T11:01:11.091Z,101055.91
2023-04-30T11:03:40.394Z,101062.81
2023-04-30T11:06:20.113Z,101057.69
2023-04-30T11:08:47.282Z,101065.34
2023-04-30T11:11:24.038Z,101057.66
2023-04-30T11:14:01.708Z,101062.53
2023-04-30T11:16:35.184Z,101056.88
2023-04-30T11:19:13.435Z,101062.97
2023-04-30T11:22:03.405Z,101057.72
2023-04-30T11:25:05.140Z,101062.03
2023-04-30T11:27:34.342Z,101054.06
2023-04-30T11:30:03.265Z,101050.91
2023-04-30T11:32:35.462Z,101049.16
2023-04-30T11:35:06.586Z,101043.91
2023-04-30T11:37:35.386Z,101041.63
2023-04-30T11:40:11.301Z,101043.50
2023-04-30T11:42:40.640Z,101034.03
2023-04-30T11:45:12.216Z,101034.81
2023-04-30T11:47:40.445Z,101038.78
2023-04-30T11:50:09.213Z,101038.72
2023-04-30T11:52:36.734Z,101032.84
2023-04-30T11:55:21.629Z,101034.38
2023-04-30T11:57:50.971Z,101034.94
2023-04-30T12:00:20.536Z,101031.75
2023-04-30T12:02:48.710Z,101027.66
2023-04-30T12:05:26.897Z,101025.78
2023-04-30T12:07:57.733Z,101014.38
2023-04-30T12:10:26.948Z,101008.91
2023-04-30T12:12:59.240Z,101012.44
2023-04-30T12:15:27.744Z,101011.41
2023-04-30T12:17:58.681Z,101006.06
2023-04-30T12:20:28.589Z,101006.16
2023-04-30T12:22:56.109Z,101000.13
2023-04-30T12:25:23.623Z,101001.94
2023-04-30T12:27:54.233Z,101000.63
2023-04-30T12:30:23.058Z,100997.72
2023-04-30T12:32:52.556Z,100996.47
2023-04-30T12:35:21.150Z,100995.19
2023-04-30T12:37:52.900Z,100992.91
2023-04-30T12:40:27.427Z,100999.94
2023-04-30T12:43:05.646Z,100994.97
2023-04-30T12:45:54.649Z,100994.69
2023-04-30T12:48:23.486Z,100983.16
2023-04-30T12:51:00.207Z,100983.31
2023-04-30T12:53:28.349Z,100982.19
2023-04-30T12:56:17.462Z,100969.66
2023-04-30T12:58:47.380Z,100974.13
2023-04-30T13:01:20.614Z,100960.97
2023-04-30T13:03:48.206Z,100965.16
2023-04-30T13:06:15.396Z,100963.44
2023-04-30T13:08:57.273Z,100961.03
2023-04-30T13:11:26.448Z,100955.91
2023-04-30T13:13:55.870Z,100946.91
2023-04-30T13:16:24.418Z,100944.66
2023-04-30T13:18:51.595Z,100952.69
2023-04-30T13:21:18.648Z,100946.41
2023-04-30T13:23:52.795Z,100934.00
2023-04-30T13:26:21.501Z,100936.50
2023-04-30T13:28:48.163Z,100931.44
2023-04-30T13:31:15.055Z,100930.19
2023-04-30T13:33:42.235Z,100930.94
2023-04-30T13:36:08.885Z,100925.38
2023-04-30T13:38:35.597Z,100927.16
2023-04-30T13:41:02.318Z,100920.50
2023-04-30T13:43:29.279Z,100916.44
2023-04-30T13:45:56.071Z,100921.06
2023-04-30T13:48:23.069Z,100912.78
2023-04-30T13:50:49.867Z,100913.47
2023-04-30T13:53:16.752Z,100912.03
2023-04-30T13:55:43.491Z,100913.22
2023-04-30T13:58:10.235Z,100913.69
2023-04-30T14:00:37.175Z,100914.19
2023-04-30T14:03:05.754Z,100911.31
2023-04-30T14:05:34.729Z,100903.91
2023-04-30T14:08:01.425Z,100902.47
2023-04-30T14:10:28.022Z,100898.78
2023-04-30T14:12:54.891Z,100903.59
2023-04-30T14:15:22.237Z,100887.84
2023-04-30T14:17:48.897Z,100903.25
2023-04-30T14:20:16.315Z,100889.94
2023-04-30T14:22:43.397Z,100883.50
2023-04-30T14:25:10.474Z,100893.13
2023-04-30T14:27:37.538Z,100890.25
2023-04-30T14:30:05.075Z,100884.63
2023-04-30T14:32:31.991Z,100876.84
2023-04-30T14:34:58.854Z,100875.34
2023-04-30T14:37:25.667Z,100873.59
2023-04-30T14:39:52.762Z,100871.03
2023-04-30T14:42:19.941Z,100867.06
2023-04-30T14:44:46.707Z,100875.13
2023-04-30T14:47:13.643Z,100874.69
2023-04-30T14:49:40.833Z,100872.91
2023-04-30T14:52:07.501Z,100870.19
2023-04-30T14:54:34.565Z,100862.97
2023-04-30T14:57:03.407Z,100863.75
2023-04-30T14:59:30.347Z,100865.81
2023-04-30T15:01:57.191Z,100866.19
2023-04-30T15:04:23.961Z,100843.25
2023-04-30T15:06:50.920Z,100837.72
2023-04-30T15:09:17.873Z,100839.94
2023-04-30T15:11:44.576Z,100840.91
2023-04-30T15:14:11.734Z,100838.75
2023-04-30T15:16:38.457Z,100851.16
2023-04-30T15:19:05.221Z,100847.75
2023-04-30T15:21:31.821Z,100855.91
2023-04-30T15:23:58.513Z,100847.41
2023-04-30T15:26:25.964Z,100855.59
2023-04-30T15:28:52.703Z,100855.88
2023-04-30T15:31:19.693Z,100855.72
2023-04-30T15:33:46.336Z,100839.19
2023-04-30T15:36:13.050Z,100848.63
2023-04-30T15:38:39.700Z,100844.75
2023-04-30T15:41:06.364Z,100849.59
2023-04-30T15:43:33.075Z,100843.97
2023-04-30T15:45:59.892Z,100840.31
2023-04-30T15:48:26.781Z,100830.34
2023-04-30T15:50:53.425Z,100824.41
2023-04-30T15:53:20.097Z,100827.19
2023-04-30T15:55:48.548Z,100817.03
2023-04-30T15:58:16.181Z,100812.53
2023-04-30T16:00:43.215Z,100808.53
2023-04-30T16:03:09.962Z,100804.34
2023-04-30T16:05:40.384Z,100807.22
2023-04-30T16:08:10.699Z,100812.31
2023-04-30T16:10:38.844Z,100808.44
2023-04-30T16:13:05.780Z,100801.41
2023-04-30T16:15:32.712Z,100800.25
2023-04-30T16:17:59.715Z,100797.19
2023-04-30T16:20:27.379Z,100795.44
2023-04-30T16:22:54.715Z,100792.72
2023-04-30T16:25:22.580Z,100790.28
2023-04-30T16:27:49.815Z,100786.72
2023-04-30T16:30:16.616Z,100795.47
2023-04-30T16:32:44.292Z,100783.78
2023-04-30T16:35:11.075Z,100795.19
2023-04-30T16:37:37.709Z,100785.53
2023-04-30T16:40:06.356Z,100784.06
2023-04-30T16:42:33.935Z,100781.63
2023-04-30T16:45:00.700Z,100781.63
2023-04-30T16:47:27.509Z,100774.25
2023-04-30T16:49:55.650Z,100776.00
2023-04-30T16:52:22.510Z,100773.13
2023-04-30T16:54:49.182Z,100768.00
2023-04-30T16:57:16.077Z,100774.53
2023-04-30T16:59:42.754Z,100763.66
2023-04-30T17:02:09.908Z,100764.47
2023-04-30T17:04:36.627Z,100762.06
2023-04-30T17:07:03.836Z,100756.72
2023-04-30T17:09:30.536Z,100753.47
2023-04-30T17:11:58.424Z,100751.69
2023-04-30T17:14:25.137Z,100760.16
2023-04-30T17:16:51.716Z,100759.38
2023-04-30T17:19:18.348Z,100762.03
2023-04-30T17:21:45.020Z,100757.34
2023-04-30T17:24:11.890Z,100759.06
2023-04-30T17:26:38.646Z,100757.09
2023-04-30T17:29:06.338Z,100755.41
2023-04-30T17:31:33.609Z,100750.38
2023-04-30T17:34:00.425Z,100758.38
2023-04-30T17:36:30.425Z,100762.59
2023-04-30T17:38:57.047Z,100764.63
2023-04-30T17:41:24.281Z,100771.28
2023-04-30T17:43:51.905Z,100764.84
2023-04-30T17:46:19.225Z,100771.69
2023-04-30T17:48:46.147Z,100765.28
2023-04-30T17:51:13.259Z,100774.34
2023-04-30T17:53:40.741Z,100761.97
2023-04-30T17:56:08.865Z,100767.22
2023-04-30T17:58:37.091Z,100768.13
2023-04-30T18:01:05.493Z,100770.97
2023-04-30T18:03:32.584Z,100764.53
2023-04-30T18:05:59.470Z,100777.38
2023-04-30T18:08:26.353Z,100773.97
2023-04-30T18:10:53.250Z,100770.56
2023-04-30T18:13:19.876Z,100771.75
2023-04-30T18:15:46.940Z,100776.16
2023-04-30T18:18:14.138Z,100773.84
2023-04-30T18:20:40.886Z,100776.13
2023-04-30T18:23:09.942Z,100773.81
2023-04-30T18:25:37.267Z,100773.09
2023-04-30T18:28:03.993Z,100777.53
2023-04-30T18:30:31.638Z,100774.91
2023-04-30T18:32:58.323Z,100776.91
2023-04-30T18:35:25.046Z,100784.03
2023-04-30T18:37:51.803Z,100776.50
2023-04-30T18:40:19.155Z,100784.69
2023-04-30T18:42:46.654Z,100776.38
2023-04-30T18:45:15.403Z,100781.88
2023-04-30T18:47:42.183Z,100779.25
2023-04-30T18:50:13.344Z,100774.72
2023-04-30T18:52:40.771Z,100777.22
2023-04-30T18:55:08.814Z,100783.22
2023-04-30T18:57:35.531Z,100789.25
2023-04-30T19:00:02.453Z,100784.69
2023-04-30T19:02:29.316Z,100789.88
2023-04-30T19:04:56.244Z,100780.72
2023-04-30T19:07:22.937Z,100784.03
2023-04-30T19:09:51.824Z,100785.72
2023-04-30T19:12:18.550Z,100791.19
2023-04-30T19:14:45.837Z,100786.66
2023-04-30T19:17:12.901Z,100786.75
2023-04-30T19:19:39.983Z,100788.13
2023-04-30T19:22:07.067Z,100784.41
2023-04-30T19:24:33.869Z,100790.91
2023-04-30T19:27:04.335Z,100786.38
2023-04-30T19:29:31.681Z,100794.56
2023-04-30T19:31:59.192Z,100794.34
2023-04-30T19:34:28.981Z,100794.91
2023-04-30T19:36:55.576Z,100802.00
2023-04-30T19:39:22.363Z,100803.69
2023-04-30T19:41:49.849Z,100806.13
2023-04-30T19:44:17.793Z,100809.63
2023-04-30T19:46:44.747Z,100792.28
2023-04-30T19:49:11.494Z,100799.31
2023-04-30T19:51:38.401Z,100798.28
2023-04-30T19:54:05.544Z,100791.84
2023-04-30T19:56:32.752Z,100794.25
2023-04-30T19:58:59.401Z,100798.28
2023-04-30T20:01:26.122Z,100803.94
2023-04-30T20:03:53.106Z,100800.94
2023-04-30T20:06:21.054Z,100790.09
2023-04-30T20:08:48.290Z,100805.75
2023-04-30T20:11:15.106Z,100795.44
2023-04-30T20:13:41.753Z,100793.53
2023-04-30T20:16:12.401Z,100798.44
2023-04-30T20:18:39.385Z,100801.22
2023-04-30T20:21:06.712Z,100803.19
2023-04-30T20:23:34.291Z,100806.25
2023-04-30T20:26:02.005Z,100799.56
2023-04-30T20:28:28.800Z,100794.50
2023-04-30T20:30:55.849Z,100803.78
2023-04-30T20:33:22.630Z,100799.28
2023-04-30T20:35:49.682Z,100799.31
2023-04-30T20:38:19.665Z,100797.75
2023-04-30T20:40:47.145Z,100791.63
2023-04-30T20:43:14.115Z,100799.75
2023-04-30T20:45:42.728Z,100792.50
2023-04-30T20:48:09.636Z,100788.25
2023-04-30T20:50:37.326Z,100789.91
2023-04-30T20:53:04.272Z,100794.28
2023-04-30T20:55:31.259Z,100792.94
2023-04-30T20:57:58.068Z,100795.94
2023-04-30T21:00:24.774Z,100798.13
2023-04-30T21:02:53.949Z,100793.81
2023-04-30T21:05:20.821Z,100798.69
2023-04-30T21:07:47.529Z,100806.28
2023-04-30T21:10:14.377Z,100793.84
2023-04-30T21:12:41.230Z,100805.47
2023-04-30T21:15:09.275Z,100801.94
2023-04-30T21:17:36.232Z,100797.59
2023-04-30T21:20:04.137Z,100794.34
2023-04-30T21:22:31.827Z,100792.38
2023-04-30T21:24:58.563Z,100788.31
2023-04-30T21:27:25.242Z,100796.97
2023-04-30T21:29:51.953Z,100786.78
2023-04-30T21:32:18.700Z,100790.63
2023-04-30T21:34:45.498Z,100784.16
2023-04-30T21:37:12.222Z,100785.28
2023-04-30T21:39:39.013Z,100778.28
2023-04-30T21:42:05.742Z,100782.09
2023-04-30T21:44:33.097Z,100777.78
2023-04-30T21:47:00.058Z,100783.50
2023-04-30T21:49:27.011Z,100779.50
2023-04-30T21:51:53.937Z,100773.06
2023-04-30T21:54:20.817Z,100771.47
2023-04-30T21:56:47.516Z,100775.22
2023-04-30T21:59:14.196Z,100769.31
2023-04-30T22:01:40.921Z,100771.50
2023-04-30T22:04:07.880Z,100767.22
2023-04-30T22:06:34.783Z,100765.66
2023-04-30T22:09:01.873Z,100766.50
2023-04-30T22:11:29.223Z,100765.69
2023-04-30T22:13:55.904Z,100769.47
2023-04-30T22:16:22.931Z,100762.47
2023-04-30T22:18:49.602Z,100749.50
2023-04-30T22:21:16.296Z,100754.44
2023-04-30T22:23:42.854Z,100749.88
2023-04-30T22:26:11.272Z,100760.94
2023-04-30T22:28:38.308Z,100749.13
2023-04-30T22:31:05.510Z,100747.00
2023-04-30T22:33:36.522Z,100747.31
2023-04-30T22:36:06.534Z,100736.56
2023-04-30T22:38:33.499Z,100744.66
2023-04-30T22:41:00.693Z,100744.66
2023-04-30T22:43:30.241Z,100731.44
2023-04-30T22:45:58.435Z,100732.50
2023-04-30T22:48:27.664Z,100734.13
2023-04-30T22:50:55.479Z,100734.13
2023-04-30T22:53:22.427Z,100732.50
2023-04-30T22:55:49.678Z,100730.91
2023-04-30T22:58:17.155Z,100732.84
2023-04-30T23:00:43.802Z,100730.47
2023-04-30T23:03:11.969Z,100740.72
2023-04-30T23:05:38.874Z,100731.34
2023-04-30T23:08:05.530Z,100738.06
2023-04-30T23:10:32.278Z,100731.03
2023-04-30T23:12:59.076Z,100744.00
2023-04-30T23:15:26.391Z,100732.41
2023-04-30T23:17:54.567Z,100726.75
2023-04-30T23:20:22.629Z,100736.16
2023-04-30T23:22:50.145Z,100726.22
2023-04-30T23:25:17.130Z,100728.91
2023-04-30T23:27:45.181Z,100730.00
2023-04-30T23:30:12.310Z,100726.25
2023-04-30T23:32:39.239Z,100727.88
2023-04-30T23:35:07.943Z,100725.47
2023-04-30T23:37:35.283Z,100720.91
2023-04-30T23:40:02.283Z,100724.44
2023-04-30T23:42:28.978Z,100718.50
2023-04-30T23:44:55.775Z,100712.59
2023-04-30T23:47:23.077Z,100706.66
2023-04-30T23:49:49.792Z,100711.78
2023-04-30T23:52:16.432Z,100711.25
2023-04-30T23:54:44.432Z,100707.50
2023-04-30T23:57:11.365Z,100694.84
2023-04-30T23:59:38.117Z,100703.72
